createdAt,value
2023-05-13T00:00:02.333Z,100577.66
2023-05-13T00:00:17.671Z,100576.03
2023-05-13T00:00:29.321Z,100583.00
2023-05-13T00:00:41.064Z,100575.19
2023-05-13T00:00:52.728Z,100577.88
2023-05-13T00:01:04.550Z,100568.84
2023-05-13T00:01:17.076Z,100577.00
2023-05-13T00:01:29.493Z,100574.34
2023-05-13T00:01:41.146Z,100578.69
2023-05-13T00:01:52.891Z,100573.53
2023-05-13T00:02:04.618Z,100574.34
2023-05-13T00:02:16.352Z,100571.69
2023-05-13T00:02:28.235Z,100574.34
2023-05-13T00:02:39.973Z,100576.19
2023-05-13T00:02:51.736Z,100573.53
2023-05-13T00:03:03.759Z,100572.53
2023-05-13T00:03:15.613Z,100573.34
2023-05-13T00:03:27.533Z,100584.03
2023-05-13T00:03:39.314Z,100581.53
2023-05-13T00:03:51.151Z,100572.53
2023-05-13T00:04:02.977Z,100583.22
2023-05-13T00:04:15.992Z,100574.34
2023-05-13T00:04:27.803Z,100571.88
2023-05-13T00:04:39.516Z,100575.38
2023-05-13T00:04:51.216Z,100577.00
2023-05-13T00:05:02.965Z,100572.88
2023-05-13T00:05:14.646Z,100575.38
2023-05-13T00:05:26.384Z,100578.03
2023-05-13T00:05:38.080Z,100568.34
2023-05-13T00:05:49.756Z,100571.88
2023-05-13T00:06:01.483Z,100577.22
2023-05-13T00:06:13.198Z,100577.22
2023-05-13T00:06:25.028Z,100579.88
2023-05-13T00:06:36.761Z,100571.03
2023-05-13T00:06:48.546Z,100572.88
2023-05-13T00:07:00.181Z,100576.34
2023-05-13T00:07:11.852Z,100571.22
2023-05-13T00:07:23.538Z,100575.72
2023-05-13T00:07:35.327Z,100574.53
2023-05-13T00:07:47.096Z,100576.56
2023-05-13T00:07:59.212Z,100576.56
2023-05-13T00:08:10.904Z,100569.84
2023-05-13T00:08:22.539Z,100572.69
2023-05-13T00:08:34.259Z,100578.22
2023-05-13T00:08:45.954Z,100572.03
2023-05-13T00:08:58.031Z,100574.53
2023-05-13T00:09:09.714Z,100569.38
2023-05-13T00:09:21.459Z,100571.88
2023-05-13T00:09:33.172Z,100577.22
2023-05-13T00:09:44.834Z,100581.69
2023-05-13T00:09:56.682Z,100576.56
2023-05-13T00:10:09.394Z,100579.88
2023-05-13T00:10:21.658Z,100572.88
2023-05-13T00:10:33.602Z,100578.22
2023-05-13T00:10:45.218Z,100572.88
2023-05-13T00:10:56.968Z,100585.22
2023-05-13T00:11:08.625Z,100577.38
2023-05-13T00:11:20.274Z,100573.91
2023-05-13T00:11:32.051Z,100577.38
2023-05-13T00:11:43.727Z,100578.22
2023-05-13T00:11:55.414Z,100578.22
2023-05-13T00:12:07.474Z,100580.72
2023-05-13T00:12:19.205Z,100574.53
2023-05-13T00:12:30.868Z,100577.22
2023-05-13T00:12:42.565Z,100577.22
2023-05-13T00:12:54.261Z,100575.53
2023-05-13T00:13:05.950Z,100580.72
2023-05-13T00:13:17.697Z,100580.72
2023-05-13T00:13:29.397Z,100573.69
2023-05-13T00:13:41.054Z,100581.91
2023-05-13T00:13:52.963Z,100572.88
2023-05-13T00:14:04.716Z,100580.88
2023-05-13T00:14:16.470Z,100580.88
2023-05-13T00:14:28.094Z,100573.69
2023-05-13T00:14:39.824Z,100571.03
2023-05-13T00:14:51.446Z,100580.06
2023-05-13T00:15:03.442Z,100575.53
2023-05-13T00:15:15.219Z,100581.69
2023-05-13T00:15:27.220Z,100571.88
2023-05-13T00:15:38.922Z,100573.03
2023-05-13T00:15:50.653Z,100574.88
2023-05-13T00:16:02.694Z,100576.56
2023-05-13T00:16:14.478Z,100573.91
2023-05-13T00:16:26.288Z,100572.03
2023-05-13T00:16:38.083Z,100575.72
2023-05-13T00:16:49.901Z,100573.03
2023-05-13T00:17:01.619Z,100571.22
2023-05-13T00:17:13.354Z,100574.06
2023-05-13T00:17:25.108Z,100574.06
2023-05-13T00:17:37.006Z,100571.22
2023-05-13T00:17:48.797Z,100574.88
2023-05-13T00:18:00.549Z,100581.06
2023-05-13T00:18:12.255Z,100574.06
2023-05-13T00:18:24.045Z,100574.06
2023-05-13T00:18:35.778Z,100575.72
2023-05-13T00:18:47.488Z,100579.22
2023-05-13T00:18:59.214Z,100567.09
2023-05-13T00:19:11.032Z,100577.56
2023-05-13T00:19:24.192Z,100575.91
2023-05-13T00:19:35.917Z,100578.75
2023-05-13T00:19:47.607Z,100575.25
2023-05-13T00:19:59.349Z,100579.78
2023-05-13T00:20:11.562Z,100578.09
2023-05-13T00:20:23.691Z,100575.25
2023-05-13T00:20:35.518Z,100578.91
2023-05-13T00:20:47.158Z,100575.44
2023-05-13T00:20:58.808Z,100581.78
2023-05-13T00:21:10.574Z,100579.94
2023-05-13T00:21:22.353Z,100579.13
2023-05-13T00:21:34.025Z,100578.31
2023-05-13T00:21:45.704Z,100572.31
2023-05-13T00:21:57.544Z,100576.63
2023-05-13T00:22:09.271Z,100578.31
2023-05-13T00:22:20.987Z,100582.78
2023-05-13T00:22:32.745Z,100571.28
2023-05-13T00:22:44.415Z,100573.94
2023-05-13T00:22:56.090Z,100580.13
2023-05-13T00:23:07.937Z,100580.13
2023-05-13T00:23:19.645Z,100575.63
2023-05-13T00:23:31.279Z,100570.47
2023-05-13T00:23:42.939Z,100574.97
2023-05-13T00:23:54.632Z,100579.28
2023-05-13T00:24:06.930Z,100573.31
2023-05-13T00:24:18.561Z,100579.66
2023-05-13T00:24:30.237Z,100583.63
2023-05-13T00:24:41.888Z,100574.78
2023-05-13T00:24:53.625Z,100573.94
2023-05-13T00:25:05.808Z,100577.66
2023-05-13T00:25:17.566Z,100576.78
2023-05-13T00:25:29.306Z,100577.66
2023-05-13T00:25:40.970Z,100573.94
2023-05-13T00:25:52.666Z,100577.44
2023-05-13T00:26:04.561Z,100574.78
2023-05-13T00:26:16.306Z,100575.81
2023-05-13T00:26:29.892Z,100574.97
2023-05-13T00:26:41.571Z,100582.13
2023-05-13T00:26:53.385Z,100579.47
2023-05-13T00:27:05.471Z,100577.81
2023-05-13T00:27:17.430Z,100576.78
2023-05-13T00:27:29.085Z,100581.31
2023-05-13T00:27:40.769Z,100576.78
2023-05-13T00:27:52.512Z,100578.63
2023-05-13T00:28:04.931Z,100578.84
2023-05-13T00:28:16.669Z,100574.31
2023-05-13T00:28:28.349Z,100586.84
2023-05-13T00:28:40.028Z,100582.34
2023-05-13T00:28:51.742Z,100574.50
2023-05-13T00:29:04.066Z,100581.50
2023-05-13T00:29:15.750Z,100580.66
2023-05-13T00:29:27.481Z,100587.03
2023-05-13T00:29:39.407Z,100579.84
2023-05-13T00:29:51.118Z,100588.66
2023-05-13T00:30:03.277Z,100586.00
2023-05-13T00:30:15.004Z,100579.84
2023-05-13T00:30:26.734Z,100576.34
2023-05-13T00:30:38.731Z,100581.69
2023-05-13T00:30:50.486Z,100583.53
2023-05-13T00:31:02.162Z,100582.66
2023-05-13T00:31:13.963Z,100580.84
2023-05-13T00:31:25.723Z,100579.19
2023-05-13T00:31:37.463Z,100582.66
2023-05-13T00:31:49.247Z,100584.53
2023-05-13T00:32:01.048Z,100581.84
2023-05-13T00:32:12.712Z,100582.66
2023-05-13T00:32:24.452Z,100577.34
2023-05-13T00:32:36.185Z,100573.84
2023-05-13T00:32:48.037Z,100577.34
2023-05-13T00:32:59.874Z,100582.06
2023-05-13T00:33:12.117Z,100580.00
2023-05-13T00:33:23.851Z,100587.03
2023-05-13T00:33:35.533Z,100585.34
2023-05-13T00:33:47.305Z,100579.00
2023-05-13T00:33:58.973Z,100580.84
2023-05-13T00:34:10.648Z,100582.50
2023-05-13T00:34:23.718Z,100579.00
2023-05-13T00:34:35.376Z,100581.69
2023-05-13T00:34:47.087Z,100587.84
2023-05-13T00:34:58.784Z,100579.19
2023-05-13T00:35:10.485Z,100587.84
2023-05-13T00:35:22.155Z,100580.66
2023-05-13T00:35:33.813Z,100585.19
2023-05-13T00:35:45.528Z,100583.53
2023-05-13T00:35:57.586Z,100586.00
2023-05-13T00:36:09.543Z,100583.53
2023-05-13T00:36:21.318Z,100589.69
2023-05-13T00:36:33.056Z,100580.00
2023-05-13T00:36:44.965Z,100572.84
2023-05-13T00:36:56.686Z,100580.00
2023-05-13T00:37:08.264Z,100584.53
2023-05-13T00:37:19.933Z,100585.34
2023-05-13T00:37:31.611Z,100584.53
2023-05-13T00:37:43.604Z,100589.69
2023-05-13T00:37:55.352Z,100588.00
2023-05-13T00:38:07.286Z,100584.34
2023-05-13T00:38:18.959Z,100583.53
2023-05-13T00:38:31.392Z,100582.50
2023-05-13T00:38:43.000Z,100589.69
2023-05-13T00:38:55.266Z,100590.69
2023-05-13T00:39:07.052Z,100582.50
2023-05-13T00:39:18.716Z,100584.34
2023-05-13T00:39:30.455Z,100584.34
2023-05-13T00:39:42.189Z,100588.88
2023-05-13T00:39:53.911Z,100589.84
2023-05-13T00:40:12.843Z,100595.19
2023-05-13T00:40:25.280Z,100590.88
2023-05-13T00:40:38.016Z,100592.53
2023-05-13T00:40:50.211Z,100577.53
2023-05-13T00:41:02.942Z,100591.72
2023-05-13T00:41:14.870Z,100589.84
2023-05-13T00:41:26.669Z,100588.00
2023-05-13T00:41:38.422Z,100588.00
2023-05-13T00:41:50.103Z,100581.16
2023-05-13T00:42:01.995Z,100584.53
2023-05-13T00:42:13.898Z,100586.38
2023-05-13T00:42:25.596Z,100585.69
2023-05-13T00:42:37.277Z,100593.56
2023-05-13T00:42:49.796Z,100590.69
2023-05-13T00:43:01.504Z,100585.34
2023-05-13T00:43:13.132Z,100592.34
2023-05-13T00:43:25.519Z,100587.03
2023-05-13T00:43:37.195Z,100582.66
2023-05-13T00:43:48.923Z,100587.19
2023-05-13T00:44:00.554Z,100588.00
2023-05-13T00:44:14.367Z,100589.69
2023-05-13T00:44:27.514Z,100582.88
2023-05-13T00:44:39.211Z,100578.34
2023-05-13T00:44:52.040Z,100582.66
2023-05-13T00:45:04.516Z,100587.19
2023-05-13T00:45:16.675Z,100586.38
2023-05-13T00:45:28.412Z,100588.22
2023-05-13T00:45:40.081Z,100591.72
2023-05-13T00:45:51.822Z,100590.06
2023-05-13T00:46:04.115Z,100586.50
2023-05-13T00:46:15.912Z,100583.00
2023-05-13T00:46:31.171Z,100585.69
2023-05-13T00:46:43.004Z,100582.66
2023-05-13T00:46:54.721Z,100588.00
2023-05-13T00:47:07.105Z,100588.00
2023-05-13T00:47:18.842Z,100585.53
2023-05-13T00:47:30.748Z,100581.84
2023-05-13T00:47:43.201Z,100583.69
2023-05-13T00:47:54.949Z,100589.84
2023-05-13T00:48:08.387Z,100589.03
2023-05-13T00:48:21.011Z,100588.22
2023-05-13T00:48:33.115Z,100583.00
2023-05-13T00:48:44.899Z,100588.22
2023-05-13T00:48:56.647Z,100589.16
2023-05-13T00:49:08.967Z,100588.22
2023-05-13T00:49:20.696Z,100590.88
2023-05-13T00:49:34.269Z,100588.34
2023-05-13T00:49:46.108Z,100591.03
2023-05-13T00:49:57.910Z,100591.84
2023-05-13T00:50:10.908Z,100589.16
2023-05-13T00:50:23.076Z,100590.19
2023-05-13T00:50:35.195Z,100585.03
2023-05-13T00:50:47.352Z,100590.19
2023-05-13T00:50:59.671Z,100589.38
2023-05-13T00:51:11.297Z,100583.84
2023-05-13T00:51:24.134Z,100587.38
2023-05-13T00:51:36.580Z,100599.03
2023-05-13T00:51:48.424Z,100590.06
2023-05-13T00:52:00.321Z,100589.16
2023-05-13T00:52:12.563Z,100585.69
2023-05-13T00:52:24.225Z,100576.84
2023-05-13T00:52:36.449Z,100590.06
2023-05-13T00:52:50.430Z,100590.19
2023-05-13T00:53:03.641Z,100586.69
2023-05-13T00:53:16.898Z,100591.19
2023-05-13T00:53:28.599Z,100588.50
2023-05-13T00:53:40.809Z,100586.69
2023-05-13T00:53:52.801Z,100591.19
2023-05-13T00:54:04.778Z,100592.03
2023-05-13T00:54:16.495Z,100589.53
2023-05-13T00:54:28.602Z,100591.19
2023-05-13T00:54:40.419Z,100586.06
2023-05-13T00:54:52.873Z,100589.38
2023-05-13T00:55:05.375Z,100597.38
2023-05-13T00:55:17.751Z,100584.56
2023-05-13T00:55:29.501Z,100585.84
2023-05-13T00:55:42.086Z,100585.19
2023-05-13T00:55:53.845Z,100593.03
2023-05-13T00:56:05.742Z,100592.22
2023-05-13T00:56:19.198Z,100591.38
2023-05-13T00:56:30.929Z,100591.38
2023-05-13T00:56:42.614Z,100579.84
2023-05-13T00:56:55.253Z,100587.03
2023-05-13T00:57:07.320Z,100591.38
2023-05-13T00:57:19.081Z,100593.41
2023-05-13T00:57:30.949Z,100586.06
2023-05-13T00:57:42.696Z,100595.69
2023-05-13T00:57:54.456Z,100591.38
2023-05-13T00:58:06.170Z,100592.22
2023-05-13T00:58:18.247Z,100588.72
2023-05-13T00:58:29.965Z,100585.41
2023-05-13T00:58:41.697Z,100591.38
2023-05-13T00:58:53.360Z,100597.56
2023-05-13T00:59:05.652Z,100589.53
2023-05-13T00:59:17.286Z,100587.88
2023-05-13T00:59:30.406Z,100589.72
2023-05-13T00:59:42.955Z,100593.41
2023-05-13T00:59:54.651Z,100590.91
2023-05-13T01:00:07.765Z,100594.22
2023-05-13T01:00:20.361Z,100588.88
2023-05-13T01:00:34.868Z,100588.88
2023-05-13T01:00:54.986Z,100589.91
2023-05-13T01:01:14.874Z,100595.25
2023-05-13T01:01:34.548Z,100595.25
2023-05-13T01:01:55.147Z,100597.06
2023-05-13T01:02:13.506Z,100596.25
2023-05-13T01:02:35.119Z,100594.41
2023-05-13T01:02:53.237Z,100591.72
2023-05-13T01:03:10.332Z,100591.72
2023-05-13T01:03:29.269Z,100591.72
2023-05-13T01:03:49.078Z,100597.06
2023-05-13T01:04:14.101Z,100597.06
2023-05-13T01:04:37.660Z,100602.41
2023-05-13T01:05:15.325Z,100593.75
2023-05-13T01:05:34.792Z,100595.41
2023-05-13T01:05:52.546Z,100591.91
2023-05-13T01:06:10.620Z,100595.41
2023-05-13T01:06:33.187Z,100585.28
2023-05-13T01:06:52.286Z,100595.41
2023-05-13T01:07:12.082Z,100593.94
2023-05-13T01:07:33.576Z,100593.75
2023-05-13T01:07:54.606Z,100599.94
2023-05-13T01:08:17.931Z,100596.41
2023-05-13T01:08:37.668Z,100593.75
2023-05-13T01:08:57.280Z,100597.25
2023-05-13T01:09:16.012Z,100593.75
2023-05-13T01:09:38.889Z,100588.78
2023-05-13T01:09:58.742Z,100596.59
2023-05-13T01:10:15.630Z,100597.44
2023-05-13T01:10:34.664Z,100598.44
2023-05-13T01:10:49.747Z,100602.78
2023-05-13T01:11:04.253Z,100599.06
2023-05-13T01:11:27.922Z,100591.28
2023-05-13T01:11:41.503Z,100599.06
2023-05-13T01:11:55.649Z,100599.06
2023-05-13T01:12:08.834Z,100594.59
2023-05-13T01:12:26.547Z,100597.25
2023-05-13T01:12:40.998Z,100591.28
2023-05-13T01:12:56.884Z,100596.41
2023-05-13T01:13:11.601Z,100593.13
2023-05-13T01:13:24.597Z,100593.13
2023-05-13T01:13:37.998Z,100593.13
2023-05-13T01:13:54.598Z,100593.94
2023-05-13T01:14:11.234Z,100592.25
2023-05-13T01:14:29.158Z,100592.25
2023-05-13T01:14:49.379Z,100596.78
2023-05-13T01:15:06.949Z,100596.78
2023-05-13T01:15:25.480Z,100602.28
2023-05-13T01:15:40.808Z,100599.44
2023-05-13T01:15:57.841Z,100599.44
2023-05-13T01:16:15.997Z,100599.59
2023-05-13T01:16:31.386Z,100591.81
2023-05-13T01:16:49.320Z,100593.66
2023-05-13T01:17:07.900Z,100594.47
2023-05-13T01:17:28.136Z,100600.63
2023-05-13T01:17:47.638Z,100590.78
2023-05-13T01:18:06.977Z,100602.47
2023-05-13T01:18:23.719Z,100592.78
2023-05-13T01:18:37.304Z,100596.31
2023-05-13T01:18:53.491Z,100600.16
2023-05-13T01:19:22.338Z,100601.00
2023-05-13T01:19:41.694Z,100599.97
2023-05-13T01:19:57.671Z,100598.34
2023-05-13T01:20:11.252Z,100602.81
2023-05-13T01:20:24.304Z,100595.66
2023-05-13T01:20:40.577Z,100594.00
2023-05-13T01:20:53.060Z,100591.97
2023-05-13T01:21:05.629Z,100602.66
2023-05-13T01:21:25.178Z,100602.66
2023-05-13T01:21:39.114Z,100595.66
2023-05-13T01:21:54.485Z,100594.00
2023-05-13T01:22:07.129Z,100597.31
2023-05-13T01:22:18.781Z,100601.81
2023-05-13T01:22:30.579Z,100604.31
2023-05-13T01:22:42.338Z,100596.50
2023-05-13T01:22:54.300Z,100593.81
2023-05-13T01:23:06.215Z,100591.16
2023-05-13T01:23:17.915Z,100606.34
2023-05-13T01:23:29.572Z,100598.13
2023-05-13T01:23:41.304Z,100600.81
2023-05-13T01:23:54.462Z,100590.31
2023-05-13T01:24:06.945Z,100599.16
2023-05-13T01:24:18.692Z,100592.13
2023-05-13T01:24:30.431Z,100589.47
2023-05-13T01:24:42.365Z,100603.47
2023-05-13T01:24:54.128Z,100601.66
2023-05-13T01:25:06.572Z,100596.31
2023-05-13T01:25:18.652Z,100601.66
2023-05-13T01:25:30.549Z,100599.97
2023-05-13T01:25:42.454Z,100603.47
2023-05-13T01:25:54.810Z,100600.81
2023-05-13T01:26:07.023Z,100598.13
2023-05-13T01:26:19.569Z,100598.13
2023-05-13T01:26:31.261Z,100596.50
2023-05-13T01:26:43.225Z,100599.00
2023-05-13T01:26:55.000Z,100600.81
2023-05-13T01:27:07.522Z,100599.81
2023-05-13T01:27:20.292Z,100595.28
2023-05-13T01:27:32.011Z,100597.97
2023-05-13T01:27:46.152Z,100602.47
2023-05-13T01:27:59.668Z,100599.00
2023-05-13T01:28:11.809Z,100594.28
2023-05-13T01:28:26.560Z,100596.13
2023-05-13T01:28:39.565Z,100596.13
2023-05-13T01:28:51.884Z,100594.28
2023-05-13T01:29:03.636Z,100597.97
2023-05-13T01:29:16.148Z,100603.13
2023-05-13T01:29:29.497Z,100597.31
2023-05-13T01:29:41.597Z,100598.78
2023-05-13T01:29:54.820Z,100594.47
2023-05-13T01:30:11.804Z,100600.63
2023-05-13T01:30:24.174Z,100596.31
2023-05-13T01:30:36.514Z,100599.81
2023-05-13T01:30:49.922Z,100598.13
2023-05-13T01:31:01.938Z,100603.47
2023-05-13T01:31:14.968Z,100595.47
2023-05-13T01:31:27.185Z,100605.16
2023-05-13T01:31:41.003Z,100600.81
2023-05-13T01:31:55.238Z,100602.66
2023-05-13T01:32:10.349Z,100599.97
2023-05-13T01:32:23.067Z,100599.31
2023-05-13T01:32:35.530Z,100592.13
2023-05-13T01:32:48.539Z,100601.00
2023-05-13T01:33:01.917Z,100599.16
2023-05-13T01:33:17.851Z,100594.81
2023-05-13T01:33:31.148Z,100596.00
2023-05-13T01:33:43.738Z,100597.31
2023-05-13T01:33:57.204Z,100599.31
2023-05-13T01:34:10.372Z,100601.81
2023-05-13T01:34:23.558Z,100597.47
2023-05-13T01:34:36.352Z,100598.34
2023-05-13T01:34:49.973Z,100601.00
2023-05-13T01:35:02.887Z,100601.81
2023-05-13T01:35:16.277Z,100608.81
2023-05-13T01:35:32.008Z,100604.66
2023-05-13T01:35:45.251Z,100601.81
2023-05-13T01:35:58.705Z,100596.84
2023-05-13T01:36:10.563Z,100600.16
2023-05-13T01:36:25.703Z,100600.16
2023-05-13T01:36:38.684Z,100602.00
2023-05-13T01:36:50.530Z,100602.81
2023-05-13T01:37:05.158Z,100601.81
2023-05-13T01:37:16.958Z,100604.66
2023-05-13T01:37:29.626Z,100603.66
2023-05-13T01:37:42.476Z,100608.16
2023-05-13T01:37:55.561Z,100595.84
2023-05-13T01:38:07.628Z,100601.16
2023-05-13T01:38:20.577Z,100602.19
2023-05-13T01:38:37.453Z,100602.00
2023-05-13T01:38:50.633Z,100603.66
2023-05-13T01:39:04.630Z,100607.16
2023-05-13T01:39:19.320Z,100602.81
2023-05-13T01:39:32.354Z,100602.00
2023-05-13T01:39:48.992Z,100603.84
2023-05-13T01:40:01.052Z,100599.53
2023-05-13T01:40:31.245Z,100603.00
2023-05-13T01:40:46.641Z,100599.31
2023-05-13T01:40:59.114Z,100599.53
2023-05-13T01:41:11.289Z,100596.84
2023-05-13T01:41:23.202Z,100596.00
2023-05-13T01:41:35.328Z,100607.53
2023-05-13T01:41:47.161Z,100599.53
2023-05-13T01:41:58.939Z,100606.50
2023-05-13T01:42:10.889Z,100604.66
2023-05-13T01:42:23.254Z,100603.84
2023-05-13T01:42:35.148Z,100590.66
2023-05-13T01:42:46.959Z,100601.34
2023-05-13T01:42:59.112Z,100597.84
2023-05-13T01:43:10.825Z,100603.19
2023-05-13T01:43:22.575Z,100601.34
2023-05-13T01:43:34.336Z,100601.34
2023-05-13T01:43:46.158Z,100603.19
2023-05-13T01:43:57.968Z,100606.69
2023-05-13T01:44:09.604Z,100598.88
2023-05-13T01:44:21.564Z,100593.53
2023-05-13T01:44:33.328Z,100600.50
2023-05-13T01:44:45.028Z,100606.69
2023-05-13T01:44:57.829Z,100599.69
2023-05-13T01:45:10.357Z,100601.53
2023-05-13T01:45:23.634Z,100599.69
2023-05-13T01:45:35.321Z,100602.34
2023-05-13T01:45:47.257Z,100598.88
2023-05-13T01:46:01.373Z,100604.84
2023-05-13T01:46:13.475Z,100602.34
2023-05-13T01:46:25.372Z,100605.84
2023-05-13T01:46:37.985Z,100604.19
2023-05-13T01:46:50.031Z,100600.50
2023-05-13T01:47:02.437Z,100606.69
2023-05-13T01:47:15.035Z,100598.66
2023-05-13T01:47:26.993Z,100603.19
2023-05-13T01:47:38.776Z,100605.84
2023-05-13T01:47:50.623Z,100605.03
2023-05-13T01:48:03.042Z,100606.69
2023-05-13T01:48:24.352Z,100601.53
2023-05-13T01:48:36.609Z,100605.84
2023-05-13T01:48:48.382Z,100603.34
2023-05-13T01:49:00.244Z,100610.53
2023-05-13T01:49:11.952Z,100607.88
2023-05-13T01:49:23.777Z,100602.53
2023-05-13T01:49:35.470Z,100601.69
2023-05-13T01:49:47.220Z,100608.88
2023-05-13T01:49:58.839Z,100605.38
2023-05-13T01:50:11.187Z,100601.03
2023-05-13T01:50:23.106Z,100601.88
2023-05-13T01:50:35.142Z,100601.22
2023-05-13T01:50:47.719Z,100602.88
2023-05-13T01:50:59.423Z,100605.56
2023-05-13T01:51:11.173Z,100606.38
2023-05-13T01:51:23.006Z,100604.72
2023-05-13T01:51:36.673Z,100597.56
2023-05-13T01:51:48.433Z,100597.38
2023-05-13T01:52:00.188Z,100598.38
2023-05-13T01:52:13.385Z,100600.06
2023-05-13T01:52:25.073Z,100601.88
2023-05-13T01:52:36.821Z,100602.88
2023-05-13T01:52:48.956Z,100600.38
2023-05-13T01:53:00.713Z,100602.06
2023-05-13T01:53:12.404Z,100603.88
2023-05-13T01:53:24.282Z,100598.53
2023-05-13T01:53:37.828Z,100603.06
2023-05-13T01:53:49.501Z,100591.56
2023-05-13T01:54:01.416Z,100601.22
2023-05-13T01:54:13.221Z,100601.41
2023-05-13T01:54:30.409Z,100599.72
2023-05-13T01:54:48.043Z,100603.22
2023-05-13T01:55:00.035Z,100601.56
2023-05-13T01:55:12.418Z,100602.41
2023-05-13T01:55:24.736Z,100597.06
2023-05-13T01:55:36.557Z,100597.88
2023-05-13T01:55:49.640Z,100598.75
2023-05-13T01:56:01.328Z,100597.06
2023-05-13T01:56:13.022Z,100599.94
2023-05-13T01:56:25.108Z,100600.56
2023-05-13T01:56:36.903Z,100601.56
2023-05-13T01:56:48.636Z,100598.75
2023-05-13T01:57:00.789Z,100594.41
2023-05-13T01:57:12.507Z,100598.09
2023-05-13T01:57:24.174Z,100600.75
2023-05-13T01:57:35.914Z,100595.41
2023-05-13T01:57:47.632Z,100600.91
2023-05-13T01:57:59.290Z,100604.41
2023-05-13T01:58:11.244Z,100601.94
2023-05-13T01:58:24.115Z,100601.94
2023-05-13T01:58:36.023Z,100602.75
2023-05-13T01:58:47.675Z,100602.75
2023-05-13T01:59:00.152Z,100602.28
2023-05-13T01:59:11.861Z,100605.44
2023-05-13T01:59:23.540Z,100607.28
2023-05-13T01:59:35.401Z,100596.59
2023-05-13T01:59:47.057Z,100608.09
2023-05-13T01:59:59.447Z,100600.09
2023-05-13T02:00:12.141Z,100607.28
2023-05-13T02:00:26.378Z,100606.25
2023-05-13T02:00:38.177Z,100607.28
2023-05-13T02:00:49.920Z,100607.28
2023-05-13T02:01:02.772Z,100601.09
2023-05-13T02:01:14.540Z,100602.94
2023-05-13T02:01:27.298Z,100608.09
2023-05-13T02:01:38.994Z,100609.94
2023-05-13T02:01:50.751Z,100607.28
2023-05-13T02:02:03.387Z,100605.59
2023-05-13T02:02:15.195Z,100610.13
2023-05-13T02:02:26.945Z,100604.59
2023-05-13T02:02:40.648Z,100600.25
2023-05-13T02:02:52.720Z,100599.81
2023-05-13T02:03:05.372Z,100603.94
2023-05-13T02:03:17.119Z,100603.13
2023-05-13T02:03:29.149Z,100608.47
2023-05-13T02:03:41.167Z,100602.09
2023-05-13T02:03:52.993Z,100608.47
2023-05-13T02:04:05.591Z,100605.81
2023-05-13T02:04:17.337Z,100607.59
2023-05-13T02:04:28.993Z,100604.94
2023-05-13T02:04:41.006Z,100612.94
2023-05-13T02:04:52.826Z,100610.28
2023-05-13T02:05:04.924Z,100603.28
2023-05-13T02:05:17.672Z,100604.28
2023-05-13T02:05:29.690Z,100606.78
2023-05-13T02:05:41.563Z,100605.97
2023-05-13T02:05:53.696Z,100602.28
2023-05-13T02:06:05.773Z,100600.63
2023-05-13T02:06:17.407Z,100605.13
2023-05-13T02:06:29.060Z,100608.47
2023-05-13T02:06:42.608Z,100604.78
2023-05-13T02:06:54.628Z,100608.25
2023-05-13T02:07:06.652Z,100605.81
2023-05-13T02:07:18.362Z,100600.47
2023-05-13T02:07:31.632Z,100600.47
2023-05-13T02:07:43.362Z,100604.78
2023-05-13T02:07:54.986Z,100602.28
2023-05-13T02:08:06.968Z,100614.63
2023-05-13T02:08:18.705Z,100605.81
2023-05-13T02:08:30.428Z,100610.13
2023-05-13T02:08:42.119Z,100604.94
2023-05-13T02:08:54.086Z,100606.78
2023-05-13T02:09:05.783Z,100606.78
2023-05-13T02:09:17.510Z,100612.94
2023-05-13T02:09:29.202Z,100599.81
2023-05-13T02:09:40.915Z,100606.78
2023-05-13T02:09:52.625Z,100608.63
2023-05-13T02:10:05.045Z,100613.16
2023-05-13T02:10:17.500Z,100611.28
2023-05-13T02:10:29.189Z,100605.97
2023-05-13T02:10:40.819Z,100606.78
2023-05-13T02:10:55.329Z,100604.13
2023-05-13T02:11:07.023Z,100604.94
2023-05-13T02:11:18.679Z,100605.97
2023-05-13T02:11:30.308Z,100606.78
2023-05-13T02:11:42.574Z,100605.97
2023-05-13T02:11:54.216Z,100607.59
2023-05-13T02:12:07.075Z,100601.44
2023-05-13T02:12:18.863Z,100606.78
2023-05-13T02:12:30.486Z,100604.94
2023-05-13T02:12:42.129Z,100605.13
2023-05-13T02:12:53.786Z,100603.28
2023-05-13T02:13:05.691Z,100605.97
2023-05-13T02:13:17.421Z,100608.78
2023-05-13T02:13:29.150Z,100607.16
2023-05-13T02:13:40.874Z,100603.47
2023-05-13T02:13:52.484Z,100603.47
2023-05-13T02:14:04.269Z,100596.47
2023-05-13T02:14:16.092Z,100598.94
2023-05-13T02:14:27.816Z,100603.47
2023-05-13T02:14:39.492Z,100605.13
2023-05-13T02:14:51.174Z,100604.28
2023-05-13T02:15:03.061Z,100606.13
2023-05-13T02:15:15.678Z,100606.13
2023-05-13T02:15:27.402Z,100603.66
2023-05-13T02:15:39.065Z,100605.31
2023-05-13T02:15:50.791Z,100604.66
2023-05-13T02:16:03.223Z,100605.47
2023-05-13T02:16:16.918Z,100613.31
2023-05-13T02:16:29.963Z,100602.81
2023-05-13T02:16:41.704Z,100604.66
2023-05-13T02:16:53.605Z,100599.47
2023-05-13T02:17:06.482Z,100601.31
2023-05-13T02:17:18.180Z,100597.66
2023-05-13T02:17:29.872Z,100607.47
2023-05-13T02:17:41.909Z,100601.31
2023-05-13T02:17:53.675Z,100598.66
2023-05-13T02:18:05.578Z,100603.16
2023-05-13T02:18:17.397Z,100602.34
2023-05-13T02:18:29.585Z,100596.00
2023-05-13T02:18:41.229Z,100597.84
2023-05-13T02:18:53.065Z,100609.53
2023-05-13T02:19:20.785Z,100605.19
2023-05-13T02:19:33.529Z,100608.66
2023-05-13T02:19:45.203Z,100608.66
2023-05-13T02:19:56.905Z,100601.53
2023-05-13T02:20:09.974Z,100598.84
2023-05-13T02:20:22.159Z,100607.69
2023-05-13T02:20:34.035Z,100609.53
2023-05-13T02:20:46.192Z,100607.03
2023-05-13T02:20:57.983Z,100608.66
2023-05-13T02:21:09.842Z,100607.84
2023-05-13T02:21:21.566Z,100604.34
2023-05-13T02:21:33.300Z,100603.53
2023-05-13T02:21:46.327Z,100604.34
2023-05-13T02:21:58.068Z,100601.53
2023-05-13T02:22:09.807Z,100599.69
2023-05-13T02:22:21.693Z,100598.00
2023-05-13T02:22:33.395Z,100598.00
2023-05-13T02:22:45.052Z,100603.34
2023-05-13T02:22:56.760Z,100605.19
2023-05-13T02:23:08.440Z,100600.88
2023-05-13T02:23:20.124Z,100601.69
2023-05-13T02:23:31.821Z,100599.84
2023-05-13T02:23:43.505Z,100603.53
2023-05-13T02:23:55.233Z,100606.00
2023-05-13T02:24:07.126Z,100604.19
2023-05-13T02:24:18.771Z,100606.00
2023-05-13T02:24:31.047Z,100612.19
2023-05-13T02:24:43.569Z,100606.19
2023-05-13T02:24:55.174Z,100606.00
2023-05-13T02:25:07.869Z,100606.84
2023-05-13T02:25:21.647Z,100605.19
2023-05-13T02:25:33.265Z,100612.34
2023-05-13T02:25:45.093Z,100604.19
2023-05-13T02:25:56.801Z,100613.00
2023-05-13T02:26:08.471Z,100611.16
2023-05-13T02:26:20.173Z,100605.00
2023-05-13T02:26:32.816Z,100607.84